Terminal Aerodrome Forecast
Issued by NWS Northern Indiana

Home | Current Version | Previous Version | Graphics & Text | Print | Product List | Glossary On
Versions: 1 2 3 4 5 6 7 8 9 10 11 12 13 14 15 16 17
852
FTUS43 KIWX 181120
TAFFWA
TAF
KFWA 181120Z 1812/1912 11005KT P6SM SCT060
     FM181500 10010KT P6SM BKN060
     FM182100 09009KT P6SM -RA OVC020
     FM190300 31011KT 4SM -SN BR OVC008=

USA.gov is the U.S. government's official web portal to all federal, state and local government web resources and services.